createdAt,value
2023-04-02T00:03:05.090Z,99267.91
2023-04-02T00:08:20.391Z,99280.63
2023-04-02T00:13:29.478Z,99284.44
2023-04-02T00:18:32.939Z,99293.09
2023-04-02T00:23:41.165Z,99297.50
2023-04-02T00:28:42.587Z,99310.66
2023-04-02T00:33:44.172Z,99313.38
2023-04-02T00:38:48.714Z,99319.50
2023-04-02T00:43:51.904Z,99322.91
2023-04-02T00:49:14.477Z,99339.03
2023-04-02T00:54:21.534Z,99328.03
2023-04-02T00:59:30.190Z,99348.53
2023-04-02T01:04:36.414Z,99349.50
2023-04-02T01:10:13.154Z,99359.84
2023-04-02T01:15:21.778Z,99359.50
2023-04-02T01:20:47.906Z,99369.25
2023-04-02T01:26:17.311Z,99383.16
2023-04-02T01:31:19.114Z,99392.13
2023-04-02T01:36:58.588Z,99391.56
2023-04-02T01:42:15.856Z,99406.19
2023-04-02T01:47:28.929Z,99416.63
2023-04-02T01:52:43.286Z,99411.22
2023-04-02T01:57:49.743Z,99421.56
2023-04-02T02:02:52.001Z,99424.16
2023-04-02T02:07:55.845Z,99419.19
2023-04-02T02:12:59.292Z,99432.44
2023-04-02T02:18:04.567Z,99449.16
2023-04-02T02:23:07.137Z,99452.78
2023-04-02T02:28:17.074Z,99451.31
2023-04-02T02:33:46.026Z,99470.00
2023-04-02T02:39:10.772Z,99477.06
2023-04-02T02:44:20.934Z,99487.63
2023-04-02T02:49:28.418Z,99493.53
2023-04-02T02:54:32.258Z,99488.06
2023-04-02T02:59:34.287Z,99504.25
2023-04-02T03:04:36.334Z,99529.03
2023-04-02T03:10:09.693Z,99533.53
2023-04-02T03:15:20.368Z,99542.63
2023-04-02T03:20:32.973Z,99554.34
2023-04-02T03:25:48.257Z,99562.47
2023-04-02T03:30:56.559Z,99569.03
2023-04-02T03:36:02.860Z,99584.53
2023-04-02T03:41:27.129Z,99595.81
2023-04-02T03:46:38.073Z,99604.13
2023-04-02T03:51:55.405Z,99606.09
2023-04-02T03:56:57.689Z,99622.22
2023-04-02T04:02:09.128Z,99634.34
2023-04-02T04:07:21.088Z,99640.38
2023-04-02T04:12:39.768Z,99642.78
2023-04-02T04:18:04.652Z,99672.16
2023-04-02T04:23:33.824Z,99672.03
2023-04-02T04:29:05.538Z,99681.91
2023-04-02T04:34:38.880Z,99688.28
2023-04-02T04:39:45.790Z,99699.56
2023-04-02T04:45:23.633Z,99711.44
2023-04-02T04:50:37.038Z,99720.50
2023-04-02T04:55:45.657Z,99727.88
2023-04-02T05:01:24.129Z,99740.28
2023-04-02T05:06:41.840Z,99745.00
2023-04-02T05:12:00.440Z,99763.66
2023-04-02T05:17:19.557Z,99771.88
2023-04-02T05:22:50.946Z,99777.34
2023-04-02T05:28:03.741Z,99784.69
2023-04-02T05:33:23.519Z,99785.16
2023-04-02T05:38:31.763Z,99800.94
2023-04-02T05:43:35.452Z,99797.50
2023-04-02T05:48:40.996Z,99807.03
2023-04-02T05:54:05.016Z,99820.25
2023-04-02T05:59:16.212Z,99819.59
2023-04-02T06:04:29.844Z,99847.31
2023-04-02T06:09:57.205Z,99841.09
2023-04-02T06:14:58.973Z,99845.53
2023-04-02T06:20:04.233Z,99861.75
2023-04-02T06:25:22.166Z,99874.47
2023-04-02T06:30:30.168Z,99878.97
2023-04-02T06:35:34.624Z,99889.09
2023-04-02T06:40:59.036Z,99896.75
2023-04-02T06:46:23.871Z,99892.44
2023-04-02T06:51:26.685Z,99915.22
2023-04-02T06:56:46.780Z,99921.44
2023-04-02T07:01:54.640Z,99918.91
2023-04-02T07:06:56.543Z,99927.06
2023-04-02T07:11:57.960Z,99951.50
2023-04-02T07:16:59.403Z,99953.56
2023-04-02T07:22:01.083Z,99960.59
2023-04-02T07:27:02.543Z,99973.75
2023-04-02T07:32:03.988Z,99980.13
2023-04-02T07:37:05.906Z,99983.28
2023-04-02T07:42:07.979Z,99992.00
2023-04-02T07:47:10.595Z,99994.69
2023-04-02T07:52:12.117Z,100004.97
2023-04-02T07:57:13.735Z,100010.13
2023-04-02T08:02:21.116Z,100020.47
2023-04-02T08:07:22.598Z,100036.47
2023-04-02T08:12:24.046Z,100038.75
2023-04-02T08:17:26.633Z,100047.75
2023-04-02T08:22:29.081Z,100059.06
2023-04-02T08:27:30.942Z,100065.53
2023-04-02T08:32:32.435Z,100078.75
2023-04-02T08:37:33.947Z,100084.81
2023-04-02T08:42:48.187Z,100088.56
2023-04-02T08:47:53.370Z,100089.97
2023-04-02T08:52:55.079Z,100092.94
2023-04-02T08:58:10.665Z,100092.56
2023-04-02T09:03:21.676Z,100104.31
2023-04-02T09:08:27.536Z,100104.03
2023-04-02T09:13:31.291Z,100114.03
2023-04-02T09:18:33.244Z,100104.31
2023-04-02T09:23:34.709Z,100134.88
2023-04-02T09:28:36.318Z,100129.91
2023-04-02T09:33:51.569Z,100134.50
2023-04-02T09:38:59.151Z,100142.47
2023-04-02T09:44:23.781Z,100143.13
2023-04-02T09:49:28.592Z,100170.84
2023-04-02T09:54:30.004Z,100164.38
2023-04-02T09:59:31.530Z,100187.13
2023-04-02T10:04:48.260Z,100185.78
2023-04-02T10:09:58.741Z,100193.88
2023-04-02T10:15:03.267Z,100204.53
2023-04-02T10:20:26.348Z,100224.53
2023-04-02T10:25:34.586Z,100213.66
2023-04-02T10:30:51.738Z,100224.53
2023-04-02T10:36:19.724Z,100226.44
2023-04-02T10:42:04.812Z,100231.69
2023-04-02T10:47:12.804Z,100230.41
2023-04-02T10:52:21.617Z,100224.38
2023-04-02T10:57:38.009Z,100237.22
2023-04-02T11:02:58.330Z,100250.28
2023-04-02T11:08:16.620Z,100254.66
2023-04-02T11:13:28.800Z,100265.34
2023-04-02T11:18:38.844Z,100267.78
2023-04-02T11:23:56.964Z,100275.41
2023-04-02T11:29:29.492Z,100289.28
2023-04-02T11:34:56.354Z,100285.94
2023-04-02T11:40:06.054Z,100294.59
2023-04-02T11:45:28.756Z,100292.41
2023-04-02T11:50:35.928Z,100313.25
2023-04-02T11:55:40.970Z,100319.22
2023-04-02T12:01:05.651Z,100325.75
2023-04-02T12:06:27.836Z,100334.22
2023-04-02T12:11:35.880Z,100344.34
2023-04-02T12:16:37.612Z,100349.88
2023-04-02T12:21:47.515Z,100352.31
2023-04-02T12:26:49.135Z,100357.22
2023-04-02T12:31:51.152Z,100360.53
2023-04-02T12:36:55.067Z,100364.28
2023-04-02T12:41:57.221Z,100363.47
2023-04-02T12:46:59.443Z,100372.06
2023-04-02T12:52:07.333Z,100369.72
2023-04-02T12:57:42.752Z,100375.09
2023-04-02T13:02:46.549Z,100379.28
2023-04-02T13:07:49.186Z,100390.88
2023-04-02T13:12:56.515Z,100390.03
2023-04-02T13:18:19.388Z,100396.41
2023-04-02T13:23:29.816Z,100402.81
2023-04-02T13:28:31.375Z,100408.06
2023-04-02T13:33:32.785Z,100409.47
2023-04-02T13:38:34.218Z,100407.22
2023-04-02T13:43:35.670Z,100401.38
2023-04-02T13:48:37.080Z,100426.53
2023-04-02T13:53:38.892Z,100428.34
2023-04-02T13:58:40.374Z,100441.63
2023-04-02T14:03:42.144Z,100443.88
2023-04-02T14:08:53.290Z,100448.63
2023-04-02T14:14:19.781Z,100435.47
2023-04-02T14:19:31.641Z,100445.66
2023-04-02T14:24:50.280Z,100446.75
2023-04-02T14:29:57.657Z,100459.50
2023-04-02T14:35:26.873Z,100465.97
2023-04-02T14:40:37.825Z,100466.56
2023-04-02T14:45:58.432Z,100466.59
2023-04-02T14:51:05.031Z,100485.97
2023-04-02T14:56:10.005Z,100478.34
2023-04-02T15:01:21.899Z,100476.19
2023-04-02T15:06:31.198Z,100495.38
2023-04-02T15:11:38.327Z,100490.47
2023-04-02T15:16:39.899Z,100502.66
2023-04-02T15:21:55.879Z,100505.13
2023-04-02T15:27:27.734Z,100515.16
2023-04-02T15:32:35.548Z,100517.69
2023-04-02T15:37:54.116Z,100520.84
2023-04-02T15:43:23.578Z,100521.25
2023-04-02T15:48:36.824Z,100530.88
2023-04-02T15:53:57.752Z,100535.47
2023-04-02T15:59:30.636Z,100541.25
2023-04-02T16:04:38.464Z,100543.34
2023-04-02T16:10:08.538Z,100551.31
2023-04-02T16:15:40.535Z,100555.28
2023-04-02T16:20:46.095Z,100569.84
2023-04-02T16:26:16.943Z,100576.91
2023-04-02T16:31:28.175Z,100571.22
2023-04-02T16:36:43.381Z,100600.66
2023-04-02T16:42:15.583Z,100606.19
2023-04-02T16:47:29.764Z,100608.63
2023-04-02T16:53:09.760Z,100616.75
2023-04-02T16:58:30.062Z,100634.22
2023-04-02T17:03:59.787Z,100643.84
2023-04-02T17:09:33.216Z,100648.38
2023-04-02T17:14:43.140Z,100647.16
2023-04-02T17:19:44.984Z,100662.75
2023-04-02T17:24:58.148Z,100680.16
2023-04-02T17:30:41.505Z,100681.56
2023-04-02T17:35:57.418Z,100685.69
2023-04-02T17:41:08.094Z,100692.81
2023-04-02T17:46:22.305Z,100683.16
2023-04-02T17:51:38.467Z,100698.28
2023-04-02T17:57:14.973Z,100707.91
2023-04-02T18:02:28.473Z,100713.16
2023-04-02T18:08:02.516Z,100721.94
2023-04-02T18:13:17.283Z,100720.88
2023-04-02T18:19:03.321Z,100743.34
2023-04-02T18:24:35.849Z,100746.19
2023-04-02T18:29:48.846Z,100765.19
2023-04-02T18:35:08.807Z,100764.41
2023-04-02T18:40:36.893Z,100777.94
2023-04-02T18:46:05.786Z,100781.44
2023-04-02T18:51:16.012Z,100788.03
2023-04-02T18:56:21.935Z,100805.41
2023-04-02T19:01:39.046Z,100801.63
2023-04-02T19:06:48.292Z,100804.28
2023-04-02T19:11:52.884Z,100812.44
2023-04-02T19:17:12.473Z,100821.50
2023-04-02T19:22:29.550Z,100809.75
2023-04-02T19:27:33.976Z,100819.28
2023-04-02T19:32:46.220Z,100820.94
2023-04-02T19:38:26.739Z,100824.97
2023-04-02T19:43:29.510Z,100827.88
2023-04-02T19:48:57.783Z,100833.72
2023-04-02T19:53:59.837Z,100838.72
2023-04-02T19:59:07.646Z,100835.69
2023-04-02T20:04:13.390Z,100839.78
2023-04-02T20:09:14.863Z,100842.84
2023-04-02T20:14:16.387Z,100840.41
2023-04-02T20:19:17.829Z,100841.03
2023-04-02T20:24:19.285Z,100853.31
2023-04-02T20:29:22.894Z,100866.50
2023-04-02T20:34:24.789Z,100867.69
2023-04-02T20:39:26.371Z,100880.06
2023-04-02T20:44:28.484Z,100876.59
2023-04-02T20:49:29.933Z,100886.34
2023-04-02T20:54:31.601Z,100888.88
2023-04-02T20:59:33.078Z,100899.38
2023-04-02T21:04:34.518Z,100901.91
2023-04-02T21:09:36.125Z,100906.25
2023-04-02T21:14:39.083Z,100914.81
2023-04-02T21:19:40.733Z,100915.59
2023-04-02T21:24:42.159Z,100921.63
2023-04-02T21:29:43.695Z,100923.94
2023-04-02T21:34:45.299Z,100920.31
2023-04-02T21:39:46.724Z,100928.59
2023-04-02T21:44:48.172Z,100927.03
2023-04-02T21:49:49.652Z,100937.06
2023-04-02T21:54:51.112Z,100926.94
2023-04-02T21:59:56.770Z,100944.94
2023-04-02T22:04:58.216Z,100949.00
2023-04-02T22:09:59.621Z,100957.56
2023-04-02T22:15:01.084Z,100953.81
2023-04-02T22:20:02.529Z,100958.34
2023-04-02T22:25:04.294Z,100955.16
2023-04-02T22:30:06.739Z,100968.41
2023-04-02T22:35:08.559Z,100963.09
2023-04-02T22:40:10.487Z,100967.72
2023-04-02T22:45:12.493Z,100971.13
2023-04-02T22:50:15.345Z,100969.44
2023-04-02T22:55:16.996Z,100971.28
2023-04-02T23:00:18.786Z,100986.88
2023-04-02T23:05:20.891Z,100986.13
2023-04-02T23:10:22.401Z,100990.38
2023-04-02T23:15:24.105Z,100996.88
2023-04-02T23:20:25.567Z,101005.59
2023-04-02T23:25:26.997Z,101015.63
2023-04-02T23:30:28.452Z,101019.47
2023-04-02T23:35:30.213Z,101023.72
2023-04-02T23:40:31.648Z,101027.44
2023-04-02T23:45:33.077Z,101024.59
2023-04-02T23:50:34.761Z,101022.03
2023-04-02T23:55:36.502Z,101021.50
